createdAt,value
2023-05-02T00:01:05.344Z,75.54
2023-05-02T00:03:33.337Z,75.98
2023-05-02T00:06:01.454Z,75.90
2023-05-02T00:08:29.558Z,76.30
2023-05-02T00:10:57.366Z,75.93
2023-05-02T00:13:25.227Z,76.25
2023-05-02T00:15:53.101Z,76.18
2023-05-02T00:18:20.854Z,76.63
2023-05-02T00:20:48.745Z,76.47
2023-05-02T00:23:16.591Z,76.42
2023-05-02T00:25:47.881Z,76.35
2023-05-02T00:28:15.705Z,76.85
2023-05-02T00:30:46.988Z,76.94
2023-05-02T00:33:15.389Z,76.15
2023-05-02T00:35:43.377Z,76.51
2023-05-02T00:38:11.165Z,76.53
2023-05-02T00:40:49.896Z,77.00
2023-05-02T00:43:17.783Z,77.38
2023-05-02T00:45:51.301Z,77.33
2023-05-02T00:48:21.901Z,77.27
2023-05-02T00:50:49.875Z,77.17
2023-05-02T00:53:18.496Z,77.32
2023-05-02T00:55:46.260Z,77.39
2023-05-02T00:58:18.127Z,77.47
2023-05-02T01:01:10.253Z,77.88
2023-05-02T01:04:00.789Z,78.30
2023-05-02T01:06:34.681Z,78.24
2023-05-02T01:09:40.118Z,78.20
2023-05-02T01:12:17.061Z,78.59
2023-05-02T01:14:47.895Z,78.37
2023-05-02T01:17:20.295Z,78.91
2023-05-02T01:19:51.745Z,78.72
2023-05-02T01:22:20.246Z,79.03
2023-05-02T01:25:25.263Z,79.02
2023-05-02T01:28:38.187Z,79.55
2023-05-02T01:31:29.643Z,79.51
2023-05-02T01:34:01.575Z,79.40
2023-05-02T01:36:32.672Z,79.34
2023-05-02T01:39:02.063Z,79.70
2023-05-02T01:41:31.809Z,79.34
2023-05-02T01:44:00.321Z,78.96
2023-05-02T01:46:32.037Z,78.98
2023-05-02T01:49:02.693Z,78.85
2023-05-02T01:51:41.370Z,78.33
2023-05-02T01:54:10.740Z,78.08
2023-05-02T01:56:42.027Z,78.06
2023-05-02T01:59:22.109Z,77.48
2023-05-02T02:01:51.715Z,77.86
2023-05-02T02:04:20.704Z,77.60
2023-05-02T02:06:52.891Z,77.51
2023-05-02T02:09:20.948Z,77.68
2023-05-02T02:12:06.271Z,77.42
2023-05-02T02:14:37.395Z,77.71
2023-05-02T02:17:35.312Z,77.00
2023-05-02T02:20:06.766Z,77.04
2023-05-02T02:22:37.131Z,76.63
2023-05-02T02:25:11.400Z,75.84
2023-05-02T02:27:39.642Z,74.96
2023-05-02T02:30:09.045Z,73.54
2023-05-02T02:32:36.993Z,73.75
2023-05-02T02:35:05.806Z,72.67
2023-05-02T02:37:35.993Z,70.81
2023-05-02T02:40:03.965Z,68.60
2023-05-02T02:42:56.006Z,66.03
2023-05-02T02:45:41.096Z,64.50
2023-05-02T02:48:28.177Z,59.67
2023-05-02T02:51:02.090Z,57.37
2023-05-02T02:53:42.192Z,52.67
2023-05-02T02:56:32.006Z,48.91
2023-05-02T02:59:06.936Z,47.79
2023-05-02T03:01:39.264Z,47.01
2023-05-02T03:04:09.224Z,45.75
2023-05-02T03:06:38.448Z,44.70
2023-05-02T03:09:07.457Z,43.56
2023-05-02T03:11:35.201Z,43.84
2023-05-02T03:14:03.016Z,41.46
2023-05-02T03:16:39.756Z,38.62
2023-05-02T03:19:11.942Z,39.32
2023-05-02T03:21:39.863Z,38.53
2023-05-02T03:24:14.322Z,39.45
2023-05-02T03:26:42.391Z,38.76
2023-05-02T03:29:12.961Z,38.69
2023-05-02T03:31:45.924Z,36.17
2023-05-02T03:34:14.034Z,35.70
2023-05-02T03:36:43.563Z,36.26
2023-05-02T03:39:11.367Z,36.02
2023-05-02T03:41:39.732Z,34.96
2023-05-02T03:44:10.969Z,34.54
2023-05-02T03:46:38.818Z,34.61
2023-05-02T03:49:11.247Z,34.89
2023-05-02T03:51:42.409Z,35.17
2023-05-02T03:54:10.830Z,33.53
2023-05-02T03:56:42.938Z,34.07
2023-05-02T03:59:25.661Z,33.66
2023-05-02T04:01:53.602Z,34.42
2023-05-02T04:04:27.601Z,33.27
2023-05-02T04:06:56.165Z,34.06
2023-05-02T04:09:25.707Z,31.60
2023-05-02T04:12:08.404Z,33.07
2023-05-02T04:14:39.927Z,32.26
2023-05-02T04:17:08.365Z,32.55
2023-05-02T04:19:43.570Z,32.33
2023-05-02T04:22:12.397Z,33.37
2023-05-02T04:24:45.676Z,31.37
2023-05-02T04:27:15.360Z,30.54
2023-05-02T04:29:44.022Z,31.00
2023-05-02T04:32:13.068Z,29.06
2023-05-02T04:34:41.632Z,29.72
2023-05-02T04:37:10.974Z,32.75
2023-05-02T04:39:44.034Z,31.42
2023-05-02T04:42:24.310Z,30.84
2023-05-02T04:45:10.642Z,31.53
2023-05-02T04:47:38.799Z,29.47
2023-05-02T04:50:08.292Z,30.37
2023-05-02T04:52:36.349Z,29.53
2023-05-02T04:55:04.544Z,30.82
2023-05-02T04:57:33.965Z,31.25
2023-05-02T05:00:03.739Z,29.78
2023-05-02T05:02:36.259Z,31.41
2023-05-02T05:05:04.671Z,30.51
2023-05-02T05:07:33.129Z,28.70
2023-05-02T05:10:01.326Z,27.63
2023-05-02T05:12:35.084Z,30.42
2023-05-02T05:15:02.953Z,29.99
2023-05-02T05:17:34.248Z,31.19
2023-05-02T05:20:08.961Z,30.25
2023-05-02T05:22:41.540Z,29.43
2023-05-02T05:25:11.697Z,28.74
2023-05-02T05:27:39.928Z,30.08
2023-05-02T05:30:09.909Z,30.54
2023-05-02T05:32:38.373Z,30.84
2023-05-02T05:35:06.902Z,29.26
2023-05-02T05:37:37.586Z,29.90
2023-05-02T05:40:08.712Z,30.43
2023-05-02T05:42:38.080Z,30.15
2023-05-02T05:45:12.461Z,29.44
2023-05-02T05:47:40.469Z,30.71
2023-05-02T05:50:08.762Z,30.02
2023-05-02T05:52:37.642Z,30.46
2023-05-02T05:55:06.946Z,30.21
2023-05-02T05:57:34.891Z,29.50
2023-05-02T06:00:03.031Z,30.05
2023-05-02T06:02:44.052Z,29.12
2023-05-02T06:05:19.358Z,28.96
2023-05-02T06:07:47.307Z,29.27
2023-05-02T06:10:15.132Z,31.05
2023-05-02T06:12:44.683Z,28.51
2023-05-02T06:15:14.704Z,27.68
2023-05-02T06:17:43.414Z,29.19
2023-05-02T06:20:11.431Z,28.21
2023-05-02T06:22:39.838Z,30.22
2023-05-02T06:25:08.980Z,29.46
2023-05-02T06:27:36.906Z,28.52
2023-05-02T06:30:05.358Z,29.81
2023-05-02T06:32:33.560Z,28.17
2023-05-02T06:35:01.509Z,28.38
2023-05-02T06:37:38.478Z,27.38
2023-05-02T06:40:07.654Z,29.39
2023-05-02T06:42:35.394Z,27.84
2023-05-02T06:45:05.646Z,29.78
2023-05-02T06:47:33.966Z,29.64
2023-05-02T06:50:21.184Z,29.40
2023-05-02T06:52:49.013Z,28.36
2023-05-02T06:55:17.043Z,28.83
2023-05-02T06:57:44.851Z,28.61
2023-05-02T07:00:16.729Z,28.74
2023-05-02T07:02:48.730Z,27.60
2023-05-02T07:05:16.868Z,27.88
2023-05-02T07:07:45.814Z,28.14
2023-05-02T07:10:13.644Z,28.15
2023-05-02T07:12:41.410Z,26.71
2023-05-02T07:15:09.302Z,27.40
2023-05-02T07:17:37.264Z,26.86
2023-05-02T07:20:05.823Z,28.15
2023-05-02T07:22:35.074Z,27.12
2023-05-02T07:25:06.204Z,28.74
2023-05-02T07:27:34.140Z,29.03
2023-05-02T07:30:02.343Z,28.03
2023-05-02T07:32:32.514Z,29.09
2023-05-02T07:35:00.638Z,28.00
2023-05-02T07:37:35.593Z,27.31
2023-05-02T07:40:04.825Z,28.14
2023-05-02T07:42:38.193Z,29.22
2023-05-02T07:45:07.247Z,28.28
2023-05-02T07:47:35.801Z,28.23
2023-05-02T07:50:04.810Z,27.41
2023-05-02T07:52:34.275Z,27.93
2023-05-02T07:55:02.283Z,28.00
2023-05-02T07:57:31.879Z,27.90
2023-05-02T08:00:02.451Z,28.63
2023-05-02T08:02:43.022Z,28.44
2023-05-02T08:05:11.266Z,28.56
2023-05-02T08:07:39.233Z,27.92
2023-05-02T08:10:07.879Z,30.24
2023-05-02T08:12:42.312Z,31.66
2023-05-02T08:15:13.170Z,31.92
2023-05-02T08:17:41.189Z,32.13
2023-05-02T08:20:09.284Z,29.95
2023-05-02T08:22:37.026Z,30.87
2023-05-02T08:25:05.143Z,30.51
2023-05-02T08:27:35.482Z,30.60
2023-05-02T08:30:03.902Z,30.33
2023-05-02T08:32:33.944Z,31.06
2023-05-02T08:35:02.728Z,30.50
2023-05-02T08:37:34.279Z,31.33
2023-05-02T08:40:02.627Z,29.56
2023-05-02T08:42:35.211Z,29.66
2023-05-02T08:45:03.586Z,30.93
2023-05-02T08:47:35.970Z,28.59
2023-05-02T08:50:06.113Z,31.96
2023-05-02T08:52:34.776Z,31.34
2023-05-02T08:55:04.387Z,29.58
2023-05-02T08:57:33.406Z,29.14
2023-05-02T09:00:01.452Z,29.91
2023-05-02T09:02:47.662Z,30.40
2023-05-02T09:05:20.228Z,30.20
2023-05-02T09:07:49.060Z,28.91
2023-05-02T09:10:16.784Z,28.99
2023-05-02T09:12:44.742Z,30.51
2023-05-02T09:15:14.714Z,29.06
2023-05-02T09:17:44.195Z,30.07
2023-05-02T09:20:16.555Z,29.83
2023-05-02T09:22:52.323Z,29.44
2023-05-02T09:25:21.056Z,28.59
2023-05-02T09:27:53.107Z,29.82
2023-05-02T09:30:25.906Z,30.33
2023-05-02T09:32:57.156Z,28.84
2023-05-02T09:35:25.117Z,28.69
2023-05-02T09:37:57.516Z,28.40
2023-05-02T09:40:25.823Z,28.17
2023-05-02T09:42:53.722Z,28.82
2023-05-02T09:45:28.346Z,28.48
2023-05-02T09:48:03.010Z,28.88
2023-05-02T09:50:38.407Z,29.07
2023-05-02T09:53:09.554Z,29.23
2023-05-02T09:55:37.858Z,29.89
2023-05-02T09:58:06.776Z,29.00
2023-05-02T10:00:45.271Z,28.39
2023-05-02T10:03:17.277Z,29.21
2023-05-02T10:05:46.570Z,29.23
2023-05-02T10:08:14.915Z,30.74
2023-05-02T10:10:47.825Z,29.36
2023-05-02T10:13:17.772Z,30.24
2023-05-02T10:15:46.322Z,31.84
2023-05-02T10:18:18.062Z,30.31
2023-05-02T10:20:57.444Z,29.74
2023-05-02T10:23:29.910Z,29.45
2023-05-02T10:26:00.165Z,29.83
2023-05-02T10:28:29.246Z,29.58
2023-05-02T10:30:57.647Z,29.95
2023-05-02T10:33:26.332Z,30.27
2023-05-02T10:35:54.259Z,31.01
2023-05-02T10:38:24.720Z,30.60
2023-05-02T10:41:07.701Z,29.81
2023-05-02T10:43:36.575Z,30.29
2023-05-02T10:46:42.072Z,31.14
2023-05-02T10:49:12.067Z,30.36
2023-05-02T10:51:41.512Z,29.59
2023-05-02T10:54:24.873Z,30.48
2023-05-02T10:57:02.440Z,29.89
2023-05-02T10:59:31.959Z,30.44
2023-05-02T11:02:00.158Z,27.93
2023-05-02T11:05:03.105Z,29.78
2023-05-02T11:07:38.306Z,27.38
2023-05-02T11:10:18.297Z,29.00
2023-05-02T11:12:47.918Z,29.31
2023-05-02T11:15:42.423Z,28.06
2023-05-02T11:18:14.694Z,28.13
2023-05-02T11:20:43.738Z,28.66
2023-05-02T11:23:18.327Z,28.65
2023-05-02T11:25:50.448Z,28.11
2023-05-02T11:28:36.866Z,28.79
2023-05-02T11:31:31.117Z,27.79
2023-05-02T11:34:03.512Z,27.79
2023-05-02T11:36:35.348Z,28.34
2023-05-02T11:39:05.965Z,29.02
2023-05-02T11:41:41.020Z,29.21
2023-05-02T11:44:09.042Z,28.10
2023-05-02T11:46:37.920Z,28.54
2023-05-02T11:49:07.669Z,28.41
2023-05-02T11:51:37.057Z,28.62
2023-05-02T11:54:07.729Z,29.50
2023-05-02T11:56:35.541Z,28.45
2023-05-02T11:59:04.224Z,28.87
2023-05-02T12:01:32.153Z,29.13
2023-05-02T12:04:08.057Z,28.63
2023-05-02T12:06:36.376Z,28.82
2023-05-02T12:09:14.003Z,29.34
2023-05-02T12:11:41.807Z,29.65
2023-05-02T12:14:09.585Z,28.25
2023-05-02T12:16:37.570Z,28.73
2023-05-02T12:19:05.808Z,28.81
2023-05-02T12:21:34.065Z,28.58
2023-05-02T12:24:02.570Z,29.16
2023-05-02T12:26:32.836Z,28.92
2023-05-02T12:29:02.856Z,30.07
2023-05-02T12:31:32.329Z,29.69
2023-05-02T12:34:01.522Z,30.29
2023-05-02T12:36:29.974Z,30.23
2023-05-02T12:39:02.227Z,29.33
2023-05-02T12:41:37.530Z,29.18
2023-05-02T12:44:08.611Z,29.03
2023-05-02T12:46:36.596Z,28.91
2023-05-02T12:49:05.673Z,29.20
2023-05-02T12:51:34.775Z,29.67
2023-05-02T12:54:04.051Z,29.98
2023-05-02T12:56:39.656Z,29.47
2023-05-02T12:59:08.193Z,29.56
2023-05-02T13:01:36.252Z,29.49
2023-05-02T13:04:05.686Z,29.04
2023-05-02T13:06:33.757Z,29.36
2023-05-02T13:09:02.100Z,30.40
2023-05-02T13:11:29.937Z,30.47
2023-05-02T13:13:59.741Z,31.08
2023-05-02T13:16:27.912Z,30.34
2023-05-02T13:18:55.678Z,30.18
2023-05-02T13:21:23.535Z,30.18
2023-05-02T13:23:52.439Z,30.39
2023-05-02T13:26:20.235Z,31.28
2023-05-02T13:28:47.967Z,30.57
2023-05-02T13:31:15.957Z,30.48
2023-05-02T13:33:43.697Z,29.70
2023-05-02T13:36:11.598Z,29.67
2023-05-02T13:38:39.644Z,29.97
2023-05-02T13:41:07.465Z,30.22
2023-05-02T13:43:39.427Z,30.41
2023-05-02T13:46:07.236Z,30.58
2023-05-02T13:48:37.426Z,30.84
2023-05-02T13:51:05.185Z,31.67
2023-05-02T13:53:32.927Z,31.62
2023-05-02T13:56:00.709Z,31.22
2023-05-02T13:58:28.591Z,30.50
2023-05-02T14:00:57.018Z,30.89
2023-05-02T14:03:25.181Z,30.96
2023-05-02T14:05:53.130Z,31.12
2023-05-02T14:08:21.837Z,31.20
2023-05-02T14:10:49.561Z,31.47
2023-05-02T14:13:17.424Z,32.26
2023-05-02T14:15:45.238Z,31.95
2023-05-02T14:18:13.045Z,31.52
2023-05-02T14:20:40.838Z,32.18
2023-05-02T14:23:08.823Z,31.42
2023-05-02T14:25:37.234Z,31.58
2023-05-02T14:28:06.048Z,30.38
2023-05-02T14:30:34.034Z,30.59
2023-05-02T14:33:02.025Z,30.27
2023-05-02T14:35:30.126Z,30.52
2023-05-02T14:37:57.943Z,30.43
2023-05-02T14:40:25.991Z,31.17
2023-05-02T14:42:56.301Z,31.02
2023-05-02T14:45:24.208Z,31.08
2023-05-02T14:47:54.970Z,30.90
2023-05-02T14:50:22.797Z,30.78
2023-05-02T14:52:51.008Z,31.28
2023-05-02T14:55:18.984Z,32.08
2023-05-02T14:57:48.452Z,31.97
2023-05-02T15:00:16.944Z,32.32
2023-05-02T15:02:45.007Z,32.17
2023-05-02T15:05:13.122Z,32.49
2023-05-02T15:07:41.000Z,32.25
2023-05-02T15:10:09.332Z,31.86
2023-05-02T15:12:37.452Z,31.99
2023-05-02T15:15:05.811Z,31.67
2023-05-02T15:17:33.665Z,31.66
2023-05-02T15:20:01.720Z,31.83
2023-05-02T15:22:30.625Z,31.83
2023-05-02T15:24:58.442Z,32.25
2023-05-02T15:27:26.164Z,32.57
2023-05-02T15:29:54.124Z,32.61
2023-05-02T15:32:22.342Z,33.03
2023-05-02T15:34:50.291Z,33.35
2023-05-02T15:37:18.044Z,33.40
2023-05-02T15:39:45.866Z,33.31
2023-05-02T15:42:13.753Z,33.34
2023-05-02T15:44:41.578Z,33.96
2023-05-02T15:47:09.589Z,34.03
2023-05-02T15:49:37.959Z,33.84
2023-05-02T15:52:05.735Z,34.15
2023-05-02T15:54:33.605Z,34.23
2023-05-02T15:57:02.668Z,33.89
2023-05-02T15:59:30.529Z,33.83
2023-05-02T16:01:58.384Z,34.36
2023-05-02T16:04:27.824Z,34.61
2023-05-02T16:06:55.939Z,35.06
2023-05-02T16:09:23.977Z,35.08
2023-05-02T16:11:51.717Z,35.36
2023-05-02T16:14:24.011Z,35.57
2023-05-02T16:16:51.904Z,35.31
2023-05-02T16:19:20.976Z,35.43
2023-05-02T16:21:48.892Z,35.10
2023-05-02T16:24:16.633Z,35.61
2023-05-02T16:26:45.575Z,36.38
2023-05-02T16:29:13.428Z,36.65
2023-05-02T16:31:43.618Z,36.14
2023-05-02T16:34:12.335Z,37.14
2023-05-02T16:36:43.175Z,37.01
2023-05-02T16:39:11.077Z,36.99
2023-05-02T16:41:38.931Z,37.36
2023-05-02T16:44:06.807Z,37.98
2023-05-02T16:46:35.134Z,37.39
2023-05-02T16:49:03.044Z,37.11
2023-05-02T16:51:31.838Z,37.30
2023-05-02T16:53:59.779Z,38.18
2023-05-02T16:56:28.287Z,37.90
2023-05-02T16:58:56.152Z,38.12
2023-05-02T17:01:26.823Z,37.60
2023-05-02T17:03:54.638Z,37.99
2023-05-02T17:06:23.129Z,38.34
2023-05-02T17:08:50.999Z,38.88
2023-05-02T17:11:18.757Z,38.37
2023-05-02T17:13:47.970Z,39.09
2023-05-02T17:16:18.208Z,39.07
2023-05-02T17:18:46.535Z,39.40
2023-05-02T17:21:14.924Z,38.60
2023-05-02T17:23:42.961Z,39.28
2023-05-02T17:26:16.687Z,39.60
2023-05-02T17:28:45.182Z,39.64
2023-05-02T17:31:13.434Z,39.28
2023-05-02T17:33:42.320Z,39.82
2023-05-02T17:36:10.747Z,38.98
2023-05-02T17:38:38.683Z,39.23
2023-05-02T17:41:06.537Z,39.55
2023-05-02T17:43:34.332Z,38.73
2023-05-02T17:46:10.197Z,39.70
2023-05-02T17:48:38.145Z,39.37
2023-05-02T17:51:07.172Z,39.87
2023-05-02T17:53:36.880Z,39.99
2023-05-02T17:56:05.641Z,39.88
2023-05-02T17:58:35.486Z,40.55
2023-05-02T18:01:11.216Z,40.28
2023-05-02T18:03:39.494Z,40.96
2023-05-02T18:06:15.337Z,41.22
2023-05-02T18:08:48.150Z,41.42
2023-05-02T18:11:23.819Z,41.16
2023-05-02T18:13:52.108Z,41.61
2023-05-02T18:16:22.720Z,41.73
2023-05-02T18:18:50.741Z,42.15
2023-05-02T18:21:22.566Z,42.65
2023-05-02T18:23:50.554Z,42.44
2023-05-02T18:26:18.361Z,42.31
2023-05-02T18:28:53.061Z,42.98
2023-05-02T18:31:21.380Z,43.08
2023-05-02T18:33:49.356Z,43.62
2023-05-02T18:36:20.897Z,43.93
2023-05-02T18:38:50.596Z,44.04
2023-05-02T18:41:27.296Z,44.21
2023-05-02T18:44:05.347Z,45.45
2023-05-02T18:46:33.205Z,45.43
2023-05-02T18:49:01.083Z,45.86
2023-05-02T18:51:29.307Z,46.12
2023-05-02T18:53:57.078Z,46.07
2023-05-02T18:56:25.576Z,46.88
2023-05-02T18:58:58.166Z,46.59
2023-05-02T19:01:31.625Z,46.31
2023-05-02T19:04:01.083Z,46.98
2023-05-02T19:06:32.447Z,47.14
2023-05-02T19:09:10.107Z,46.86
2023-05-02T19:11:44.077Z,47.41
2023-05-02T19:14:19.413Z,47.28
2023-05-02T19:16:47.569Z,47.76
2023-05-02T19:19:15.834Z,47.28
2023-05-02T19:21:43.719Z,48.01
2023-05-02T19:24:15.012Z,47.84
2023-05-02T19:26:42.858Z,48.03
2023-05-02T19:29:10.895Z,47.93
2023-05-02T19:31:39.526Z,48.56
2023-05-02T19:34:10.430Z,47.95
2023-05-02T19:36:38.258Z,48.37
2023-05-02T19:39:07.026Z,48.28
2023-05-02T19:41:42.588Z,48.91
2023-05-02T19:44:10.909Z,48.35
2023-05-02T19:46:41.433Z,49.27
2023-05-02T19:49:12.963Z,49.57
2023-05-02T19:51:43.405Z,49.66
2023-05-02T19:54:15.172Z,49.75
2023-05-02T19:56:48.996Z,49.78
2023-05-02T19:59:17.631Z,50.17
2023-05-02T20:01:55.659Z,50.07
2023-05-02T20:04:28.004Z,49.86
2023-05-02T20:06:57.051Z,50.13
2023-05-02T20:09:30.575Z,50.33
2023-05-02T20:12:02.034Z,49.91
2023-05-02T20:14:30.005Z,49.66
2023-05-02T20:17:01.799Z,50.46
2023-05-02T20:19:33.816Z,50.99
2023-05-02T20:22:01.964Z,50.76
2023-05-02T20:24:32.572Z,51.29
2023-05-02T20:27:00.499Z,50.91
2023-05-02T20:29:31.092Z,50.66
2023-05-02T20:31:59.525Z,51.10
2023-05-02T20:34:27.521Z,51.56
2023-05-02T20:36:55.775Z,51.29
2023-05-02T20:39:26.040Z,51.79
2023-05-02T20:41:58.403Z,51.51
2023-05-02T20:44:28.654Z,51.05
2023-05-02T20:46:56.506Z,51.21
2023-05-02T20:49:24.416Z,51.41
2023-05-02T20:51:58.847Z,51.37
2023-05-02T20:54:29.495Z,51.61
2023-05-02T20:56:57.398Z,51.93
2023-05-02T20:59:25.847Z,51.69
2023-05-02T21:01:53.636Z,51.79
2023-05-02T21:04:21.502Z,51.78
2023-05-02T21:06:49.393Z,51.92
2023-05-02T21:09:17.223Z,52.03
2023-05-02T21:11:46.115Z,51.23
2023-05-02T21:14:14.029Z,51.97
2023-05-02T21:16:41.830Z,52.52
2023-05-02T21:19:09.660Z,52.59
2023-05-02T21:21:37.519Z,52.80
2023-05-02T21:24:05.858Z,51.84
2023-05-02T21:26:33.808Z,52.69
2023-05-02T21:29:02.440Z,52.81
2023-05-02T21:31:32.225Z,53.21
2023-05-02T21:34:00.664Z,53.27
2023-05-02T21:36:28.559Z,52.86
2023-05-02T21:38:58.741Z,52.66
2023-05-02T21:41:26.515Z,52.52
2023-05-02T21:43:54.479Z,52.86
2023-05-02T21:46:22.336Z,53.12
2023-05-02T21:48:50.228Z,53.41
2023-05-02T21:51:18.102Z,53.05
2023-05-02T21:53:46.778Z,53.35
2023-05-02T21:56:14.616Z,53.43
2023-05-02T21:58:42.463Z,53.20
2023-05-02T22:01:10.452Z,53.79
2023-05-02T22:03:39.271Z,52.92
2023-05-02T22:06:07.328Z,53.58
2023-05-02T22:08:36.364Z,54.17
2023-05-02T22:11:10.441Z,53.23
2023-05-02T22:13:38.373Z,53.44
2023-05-02T22:16:07.123Z,53.35
2023-05-02T22:18:35.023Z,54.38
2023-05-02T22:21:03.881Z,54.41
2023-05-02T22:23:31.676Z,54.06
2023-05-02T22:25:59.602Z,53.56
2023-05-02T22:28:27.477Z,53.09
2023-05-02T22:30:55.319Z,53.63
2023-05-02T22:33:23.699Z,53.77
2023-05-02T22:35:51.526Z,53.60
2023-05-02T22:38:20.021Z,54.10
2023-05-02T22:40:47.902Z,53.62
2023-05-02T22:43:17.598Z,53.90
2023-05-02T22:45:45.608Z,54.54
2023-05-02T22:48:13.560Z,53.93
2023-05-02T22:50:43.206Z,54.06
2023-05-02T22:53:11.220Z,54.46
2023-05-02T22:55:39.343Z,55.30
2023-05-02T22:58:07.356Z,55.07
2023-05-02T23:00:35.300Z,55.20
2023-05-02T23:03:03.438Z,54.63
2023-05-02T23:05:31.255Z,55.07
2023-05-02T23:07:58.994Z,55.18
2023-05-02T23:10:31.673Z,54.45
2023-05-02T23:12:59.595Z,54.78
2023-05-02T23:15:27.521Z,55.40
2023-05-02T23:17:55.607Z,55.18
2023-05-02T23:20:23.512Z,54.99
2023-05-02T23:22:51.449Z,54.82
2023-05-02T23:25:19.315Z,55.08
2023-05-02T23:27:47.271Z,54.88
2023-05-02T23:30:15.126Z,54.99
2023-05-02T23:32:42.940Z,55.35
2023-05-02T23:35:11.292Z,56.02
2023-05-02T23:37:40.685Z,55.40
2023-05-02T23:40:09.461Z,56.10
2023-05-02T23:42:40.554Z,55.88
2023-05-02T23:45:11.956Z,56.56
2023-05-02T23:47:39.663Z,55.57
2023-05-02T23:50:08.139Z,55.82
2023-05-02T23:52:35.920Z,55.74
2023-05-02T23:55:04.351Z,55.75
2023-05-02T23:57:32.097Z,55.87
